Coral Harbour, Canada
Current Conditions -  °F | °C
As of 7:00 AM on Thursday 23 Oct 2014 (Local Time) from CYZS Reporting Station
Few Clouds Few Clouds  
Wind Chill: -10°   Ceiling: Unl
Heat Index:   Visibility: 15mi
Dew Point:   Wind: 14mph
Humidity: 72%   Direction: 10°N
Pressure: 30.16"   Gusts: NA
Location:  64.14°N, 83.17°W
Report Text: CYZS 231100Z 01012KT 15SM FEW050 M14/M18 A3016 RMK SC1 SLP219
Loading
Personal Weather Stations






























Interactive Weather Map
Tropical Storm Tracking
New forecast layout! Learn more

10-Day Weather Forecast

Advertisements
Track Severe Weather on mobile